sensor_id;sensor_type;location;lat;lon;timestamp;P1;durP1;ratioP1;P2;durP2;ratioP2
56511;SDS011;42408;53.238;5.686;2023-04-03T00:02:07;5.90;;;2.63;;
56511;SDS011;42408;53.238;5.686;2023-04-03T00:04:32;8.30;;;2.83;;
56511;SDS011;42408;53.238;5.686;2023-04-03T00:06:58;4.87;;;2.50;;
56511;SDS011;42408;53.238;5.686;2023-04-03T00:09:24;5.03;;;2.43;;
56511;SDS011;42408;53.238;5.686;2023-04-03T00:11:50;4.03;;;2.50;;
56511;SDS011;42408;53.238;5.686;2023-04-03T00:14:16;5.73;;;3.20;;
56511;SDS011;42408;53.238;5.686;2023-04-03T00:16:41;5.47;;;2.80;;
56511;SDS011;42408;53.238;5.686;2023-04-03T00:19:07;6.50;;;3.10;;
56511;SDS011;42408;53.238;5.686;2023-04-03T00:21:33;6.43;;;2.80;;
56511;SDS011;42408;53.238;5.686;2023-04-03T00:23:58;6.50;;;3.13;;
56511;SDS011;42408;53.238;5.686;2023-04-03T00:26:24;4.27;;;2.60;;
56511;SDS011;42408;53.238;5.686;2023-04-03T00:28:50;5.70;;;2.80;;
56511;SDS011;42408;53.238;5.686;2023-04-03T00:31:16;4.13;;;2.90;;
56511;SDS011;42408;53.238;5.686;2023-04-03T00:33:42;6.72;;;3.00;;
56511;SDS011;42408;53.238;5.686;2023-04-03T00:36:08;5.37;;;2.53;;
56511;SDS011;42408;53.238;5.686;2023-04-03T00:38:35;6.57;;;2.78;;
56511;SDS011;42408;53.238;5.686;2023-04-03T00:41:01;3.77;;;2.37;;
56511;SDS011;42408;53.238;5.686;2023-04-03T00:43:26;5.53;;;2.77;;
56511;SDS011;42408;53.238;5.686;2023-04-03T00:45:53;6.60;;;3.53;;
56511;SDS011;42408;53.238;5.686;2023-04-03T00:48:21;6.03;;;2.67;;
56511;SDS011;42408;53.238;5.686;2023-04-03T00:50:51;5.45;;;2.80;;
56511;SDS011;42408;53.238;5.686;2023-04-03T00:53:18;4.25;;;2.80;;
56511;SDS011;42408;53.238;5.686;2023-04-03T00:55:48;6.43;;;3.00;;
56511;SDS011;42408;53.238;5.686;2023-04-03T00:58:16;5.40;;;2.88;;
56511;SDS011;42408;53.238;5.686;2023-04-03T01:00:45;5.70;;;2.83;;
56511;SDS011;42408;53.238;5.686;2023-04-03T01:03:18;6.03;;;2.97;;
56511;SDS011;42408;53.238;5.686;2023-04-03T01:05:45;5.78;;;2.40;;
56511;SDS011;42408;53.238;5.686;2023-04-03T01:08:11;4.57;;;2.77;;
56511;SDS011;42408;53.238;5.686;2023-04-03T01:10:36;5.23;;;2.50;;
56511;SDS011;42408;53.238;5.686;2023-04-03T01:13:02;4.83;;;2.73;;
56511;SDS011;42408;53.238;5.686;2023-04-03T01:15:47;5.60;;;2.33;;
56511;SDS011;42408;53.238;5.686;2023-04-03T01:18:12;6.30;;;2.70;;
56511;SDS011;42408;53.238;5.686;2023-04-03T01:20:45;4.10;;;2.63;;
56511;SDS011;42408;53.238;5.686;2023-04-03T01:26:01;5.38;;;2.47;;
56511;SDS011;42408;53.238;5.686;2023-04-03T01:28:32;3.45;;;1.90;;
56511;SDS011;42408;53.238;5.686;2023-04-03T01:31:19;4.32;;;2.35;;
56511;SDS011;42408;53.238;5.686;2023-04-03T01:33:49;4.70;;;2.08;;
56511;SDS011;42408;53.238;5.686;2023-04-03T01:36:36;4.68;;;2.03;;
56511;SDS011;42408;53.238;5.686;2023-04-03T01:39:01;4.72;;;2.65;;
56511;SDS011;42408;53.238;5.686;2023-04-03T01:41:27;4.97;;;2.05;;
56511;SDS011;42408;53.238;5.686;2023-04-03T01:43:54;4.00;;;2.00;;
56511;SDS011;42408;53.238;5.686;2023-04-03T01:46:19;3.60;;;2.00;;
56511;SDS011;42408;53.238;5.686;2023-04-03T01:48:46;5.63;;;2.50;;
56511;SDS011;42408;53.238;5.686;2023-04-03T01:51:12;4.73;;;2.37;;
56511;SDS011;42408;53.238;5.686;2023-04-03T01:53:37;5.77;;;2.20;;
56511;SDS011;42408;53.238;5.686;2023-04-03T01:56:03;4.83;;;2.33;;
56511;SDS011;42408;53.238;5.686;2023-04-03T01:58:29;3.67;;;2.10;;
56511;SDS011;42408;53.238;5.686;2023-04-03T02:00:55;3.47;;;2.00;;
56511;SDS011;42408;53.238;5.686;2023-04-03T02:03:21;3.73;;;2.17;;
56511;SDS011;42408;53.238;5.686;2023-04-03T02:05:47;6.05;;;2.50;;
56511;SDS011;42408;53.238;5.686;2023-04-03T02:08:13;4.17;;;2.10;;
56511;SDS011;42408;53.238;5.686;2023-04-03T02:10:39;2.80;;;2.13;;
56511;SDS011;42408;53.238;5.686;2023-04-03T02:13:05;5.07;;;2.87;;
56511;SDS011;42408;53.238;5.686;2023-04-03T02:15:30;4.07;;;2.10;;
56511;SDS011;42408;53.238;5.686;2023-04-03T02:17:56;5.27;;;2.50;;
56511;SDS011;42408;53.238;5.686;2023-04-03T02:20:22;3.13;;;1.80;;
56511;SDS011;42408;53.238;5.686;2023-04-03T02:22:47;5.70;;;2.00;;
56511;SDS011;42408;53.238;5.686;2023-04-03T02:25:13;4.23;;;2.10;;
56511;SDS011;42408;53.238;5.686;2023-04-03T02:27:39;3.53;;;1.92;;
56511;SDS011;42408;53.238;5.686;2023-04-03T02:30:05;9.20;;;2.40;;
56511;SDS011;42408;53.238;5.686;2023-04-03T02:32:31;4.05;;;2.25;;
56511;SDS011;42408;53.238;5.686;2023-04-03T02:34:57;3.60;;;1.77;;
56511;SDS011;42408;53.238;5.686;2023-04-03T02:37:23;5.10;;;2.20;;
56511;SDS011;42408;53.238;5.686;2023-04-03T02:39:49;3.67;;;2.00;;
56511;SDS011;42408;53.238;5.686;2023-04-03T02:42:15;4.30;;;2.20;;
56511;SDS011;42408;53.238;5.686;2023-04-03T02:44:40;6.23;;;2.27;;
56511;SDS011;42408;53.238;5.686;2023-04-03T02:47:06;5.37;;;2.03;;
56511;SDS011;42408;53.238;5.686;2023-04-03T02:49:32;5.30;;;2.10;;
56511;SDS011;42408;53.238;5.686;2023-04-03T02:51:57;5.97;;;2.50;;
56511;SDS011;42408;53.238;5.686;2023-04-03T02:54:23;5.37;;;2.23;;
56511;SDS011;42408;53.238;5.686;2023-04-03T02:56:52;4.53;;;2.50;;
56511;SDS011;42408;53.238;5.686;2023-04-03T02:59:18;5.73;;;2.60;;
56511;SDS011;42408;53.238;5.686;2023-04-03T03:01:44;5.47;;;2.65;;
56511;SDS011;42408;53.238;5.686;2023-04-03T03:04:10;4.57;;;2.23;;
56511;SDS011;42408;53.238;5.686;2023-04-03T03:06:36;7.43;;;2.40;;
56511;SDS011;42408;53.238;5.686;2023-04-03T03:09:02;3.77;;;2.10;;
56511;SDS011;42408;53.238;5.686;2023-04-03T03:11:28;5.15;;;2.40;;
56511;SDS011;42408;53.238;5.686;2023-04-03T03:13:56;5.13;;;2.50;;
56511;SDS011;42408;53.238;5.686;2023-04-03T03:16:22;5.97;;;2.78;;
56511;SDS011;42408;53.238;5.686;2023-04-03T03:18:48;4.50;;;2.40;;
56511;SDS011;42408;53.238;5.686;2023-04-03T03:21:14;5.90;;;2.97;;
56511;SDS011;42408;53.238;5.686;2023-04-03T03:23:39;7.90;;;2.93;;
56511;SDS011;42408;53.238;5.686;2023-04-03T03:26:07;4.25;;;2.28;;
56511;SDS011;42408;53.238;5.686;2023-04-03T03:28:34;6.38;;;2.40;;
56511;SDS011;42408;53.238;5.686;2023-04-03T03:31:01;6.60;;;3.53;;
56511;SDS011;42408;53.238;5.686;2023-04-03T03:33:27;4.78;;;2.30;;
56511;SDS011;42408;53.238;5.686;2023-04-03T03:35:53;5.87;;;2.47;;
56511;SDS011;42408;53.238;5.686;2023-04-03T03:38:19;5.63;;;2.40;;
56511;SDS011;42408;53.238;5.686;2023-04-03T03:40:49;4.82;;;2.53;;
56511;SDS011;42408;53.238;5.686;2023-04-03T03:43:16;6.53;;;2.67;;
56511;SDS011;42408;53.238;5.686;2023-04-03T03:45:42;3.85;;;2.38;;
56511;SDS011;42408;53.238;5.686;2023-04-03T03:48:08;5.83;;;2.93;;
56511;SDS011;42408;53.238;5.686;2023-04-03T03:50:34;6.40;;;3.03;;
56511;SDS011;42408;53.238;5.686;2023-04-03T03:53:00;4.53;;;2.53;;
56511;SDS011;42408;53.238;5.686;2023-04-03T03:55:26;5.97;;;2.40;;
56511;SDS011;42408;53.238;5.686;2023-04-03T03:57:52;4.70;;;2.60;;
56511;SDS011;42408;53.238;5.686;2023-04-03T04:00:18;4.63;;;2.70;;
56511;SDS011;42408;53.238;5.686;2023-04-03T04:02:44;4.10;;;2.40;;
56511;SDS011;42408;53.238;5.686;2023-04-03T04:05:10;6.00;;;2.78;;
56511;SDS011;42408;53.238;5.686;2023-04-03T04:07:36;5.30;;;2.97;;
56511;SDS011;42408;53.238;5.686;2023-04-03T04:10:02;5.83;;;2.83;;
56511;SDS011;42408;53.238;5.686;2023-04-03T04:12:28;5.82;;;2.70;;
56511;SDS011;42408;53.238;5.686;2023-04-03T04:14:54;6.63;;;2.60;;
56511;SDS011;42408;53.238;5.686;2023-04-03T04:17:20;6.40;;;2.80;;
56511;SDS011;42408;53.238;5.686;2023-04-03T04:19:46;5.87;;;2.60;;
56511;SDS011;42408;53.238;5.686;2023-04-03T04:22:11;5.20;;;2.70;;
56511;SDS011;42408;53.238;5.686;2023-04-03T04:24:37;6.50;;;2.80;;
56511;SDS011;42408;53.238;5.686;2023-04-03T04:27:03;5.37;;;2.47;;
56511;SDS011;42408;53.238;5.686;2023-04-03T04:29:28;5.77;;;2.70;;
56511;SDS011;42408;53.238;5.686;2023-04-03T04:31:54;5.67;;;2.87;;
56511;SDS011;42408;53.238;5.686;2023-04-03T04:34:20;6.97;;;3.07;;
56511;SDS011;42408;53.238;5.686;2023-04-03T04:36:45;5.47;;;2.40;;
56511;SDS011;42408;53.238;5.686;2023-04-03T04:39:11;8.27;;;2.77;;
56511;SDS011;42408;53.238;5.686;2023-04-03T04:41:36;6.80;;;2.60;;
56511;SDS011;42408;53.238;5.686;2023-04-03T04:44:02;5.83;;;2.97;;
56511;SDS011;42408;53.238;5.686;2023-04-03T04:46:28;5.70;;;2.73;;
56511;SDS011;42408;53.238;5.686;2023-04-03T04:48:53;5.90;;;2.73;;
56511;SDS011;42408;53.238;5.686;2023-04-03T04:51:19;6.53;;;2.93;;
56511;SDS011;42408;53.238;5.686;2023-04-03T04:53:45;5.90;;;3.07;;
56511;SDS011;42408;53.238;5.686;2023-04-03T04:56:11;6.10;;;2.53;;
56511;SDS011;42408;53.238;5.686;2023-04-03T04:58:36;5.83;;;2.80;;
56511;SDS011;42408;53.238;5.686;2023-04-03T05:01:03;4.57;;;2.70;;
56511;SDS011;42408;53.238;5.686;2023-04-03T05:03:30;7.22;;;3.03;;
56511;SDS011;42408;53.238;5.686;2023-04-03T05:05:56;6.07;;;2.80;;
56511;SDS011;42408;53.238;5.686;2023-04-03T05:08:22;5.20;;;2.73;;
56511;SDS011;42408;53.238;5.686;2023-04-03T05:10:48;5.70;;;3.00;;
56511;SDS011;42408;53.238;5.686;2023-04-03T05:13:14;6.37;;;2.63;;
56511;SDS011;42408;53.238;5.686;2023-04-03T05:15:40;7.03;;;2.90;;
56511;SDS011;42408;53.238;5.686;2023-04-03T05:18:05;8.53;;;2.90;;
56511;SDS011;42408;53.238;5.686;2023-04-03T05:20:32;5.37;;;2.63;;
56511;SDS011;42408;53.238;5.686;2023-04-03T05:25:24;7.25;;;3.97;;
56511;SDS011;42408;53.238;5.686;2023-04-03T05:27:50;8.10;;;3.20;;
56511;SDS011;42408;53.238;5.686;2023-04-03T05:30:16;4.90;;;2.70;;
56511;SDS011;42408;53.238;5.686;2023-04-03T05:32:42;6.68;;;3.28;;
56511;SDS011;42408;53.238;5.686;2023-04-03T05:35:08;7.97;;;3.20;;
56511;SDS011;42408;53.238;5.686;2023-04-03T05:37:34;7.33;;;3.60;;
56511;SDS011;42408;53.238;5.686;2023-04-03T05:40:00;8.38;;;3.58;;
56511;SDS011;42408;53.238;5.686;2023-04-03T05:42:26;8.07;;;4.00;;
56511;SDS011;42408;53.238;5.686;2023-04-03T05:44:52;8.07;;;4.00;;
56511;SDS011;42408;53.238;5.686;2023-04-03T05:47:18;10.20;;;4.87;;
56511;SDS011;42408;53.238;5.686;2023-04-03T05:49:44;9.52;;;3.45;;
56511;SDS011;42408;53.238;5.686;2023-04-03T05:52:23;9.63;;;3.45;;
56511;SDS011;42408;53.238;5.686;2023-04-03T05:54:53;7.75;;;3.78;;
56511;SDS011;42408;53.238;5.686;2023-04-03T05:57:19;9.32;;;3.95;;
56511;SDS011;42408;53.238;5.686;2023-04-03T05:59:46;5.22;;;3.10;;
56511;SDS011;42408;53.238;5.686;2023-04-03T06:02:13;9.80;;;3.78;;
56511;SDS011;42408;53.238;5.686;2023-04-03T06:04:40;7.78;;;3.30;;
56511;SDS011;42408;53.238;5.686;2023-04-03T06:07:06;7.93;;;3.87;;
56511;SDS011;42408;53.238;5.686;2023-04-03T06:09:36;5.47;;;3.15;;
56511;SDS011;42408;53.238;5.686;2023-04-03T06:12:02;6.83;;;3.63;;
56511;SDS011;42408;53.238;5.686;2023-04-03T06:14:27;7.60;;;3.80;;
56511;SDS011;42408;53.238;5.686;2023-04-03T06:16:53;6.87;;;3.30;;
56511;SDS011;42408;53.238;5.686;2023-04-03T06:19:19;8.63;;;3.20;;
56511;SDS011;42408;53.238;5.686;2023-04-03T06:21:45;6.10;;;3.23;;
56511;SDS011;42408;53.238;5.686;2023-04-03T06:26:39;8.25;;;2.83;;
56511;SDS011;42408;53.238;5.686;2023-04-03T06:29:05;9.27;;;3.40;;
56511;SDS011;42408;53.238;5.686;2023-04-03T06:31:31;6.57;;;3.00;;
56511;SDS011;42408;53.238;5.686;2023-04-03T06:33:57;5.50;;;2.73;;
56511;SDS011;42408;53.238;5.686;2023-04-03T06:36:22;6.93;;;3.37;;
56511;SDS011;42408;53.238;5.686;2023-04-03T06:38:48;7.03;;;3.10;;
56511;SDS011;42408;53.238;5.686;2023-04-03T06:41:14;5.87;;;2.97;;
56511;SDS011;42408;53.238;5.686;2023-04-03T06:43:41;8.05;;;3.80;;
56511;SDS011;42408;53.238;5.686;2023-04-03T06:46:12;7.15;;;2.88;;
56511;SDS011;42408;53.238;5.686;2023-04-03T06:48:41;6.65;;;3.53;;
56511;SDS011;42408;53.238;5.686;2023-04-03T06:51:11;5.53;;;2.42;;
56511;SDS011;42408;53.238;5.686;2023-04-03T06:53:40;6.47;;;3.17;;
56511;SDS011;42408;53.238;5.686;2023-04-03T06:56:07;6.33;;;2.83;;
56511;SDS011;42408;53.238;5.686;2023-04-03T06:58:33;6.70;;;3.05;;
56511;SDS011;42408;53.238;5.686;2023-04-03T07:00:58;5.10;;;2.63;;
56511;SDS011;42408;53.238;5.686;2023-04-03T07:03:25;7.57;;;3.40;;
56511;SDS011;42408;53.238;5.686;2023-04-03T07:05:50;9.40;;;3.17;;
56511;SDS011;42408;53.238;5.686;2023-04-03T07:08:16;7.37;;;3.07;;
56511;SDS011;42408;53.238;5.686;2023-04-03T07:10:41;6.27;;;2.80;;
56511;SDS011;42408;53.238;5.686;2023-04-03T07:13:07;6.53;;;2.90;;
56511;SDS011;42408;53.238;5.686;2023-04-03T07:15:33;5.57;;;2.93;;
56511;SDS011;42408;53.238;5.686;2023-04-03T07:17:58;6.13;;;3.03;;
56511;SDS011;42408;53.238;5.686;2023-04-03T07:20:24;6.70;;;3.23;;
56511;SDS011;42408;53.238;5.686;2023-04-03T07:22:50;7.53;;;2.90;;
56511;SDS011;42408;53.238;5.686;2023-04-03T07:25:16;6.30;;;3.07;;
56511;SDS011;42408;53.238;5.686;2023-04-03T07:27:42;6.10;;;2.80;;
56511;SDS011;42408;53.238;5.686;2023-04-03T07:30:08;7.83;;;2.83;;
56511;SDS011;42408;53.238;5.686;2023-04-03T07:32:34;8.35;;;2.85;;
56511;SDS011;42408;53.238;5.686;2023-04-03T07:35:00;6.90;;;2.93;;
56511;SDS011;42408;53.238;5.686;2023-04-03T07:37:25;5.63;;;3.10;;
56511;SDS011;42408;53.238;5.686;2023-04-03T07:39:51;5.80;;;3.13;;
56511;SDS011;42408;53.238;5.686;2023-04-03T07:42:17;7.03;;;2.93;;
56511;SDS011;42408;53.238;5.686;2023-04-03T07:44:42;6.07;;;2.73;;
56511;SDS011;42408;53.238;5.686;2023-04-03T07:47:08;6.23;;;2.90;;
56511;SDS011;42408;53.238;5.686;2023-04-03T07:49:34;6.53;;;3.60;;
56511;SDS011;42408;53.238;5.686;2023-04-03T07:52:03;9.68;;;3.60;;
56511;SDS011;42408;53.238;5.686;2023-04-03T07:54:29;7.38;;;2.78;;
56511;SDS011;42408;53.238;5.686;2023-04-03T07:56:55;7.73;;;3.17;;
56511;SDS011;42408;53.238;5.686;2023-04-03T07:59:21;6.70;;;2.65;;
56511;SDS011;42408;53.238;5.686;2023-04-03T08:01:47;6.60;;;3.10;;
56511;SDS011;42408;53.238;5.686;2023-04-03T08:04:12;6.87;;;2.77;;
56511;SDS011;42408;53.238;5.686;2023-04-03T08:06:38;6.50;;;2.90;;
56511;SDS011;42408;53.238;5.686;2023-04-03T08:09:04;6.07;;;3.20;;
56511;SDS011;42408;53.238;5.686;2023-04-03T08:11:30;7.90;;;2.70;;
56511;SDS011;42408;53.238;5.686;2023-04-03T08:13:56;7.83;;;3.23;;
56511;SDS011;42408;53.238;5.686;2023-04-03T08:16:22;5.20;;;2.55;;
56511;SDS011;42408;53.238;5.686;2023-04-03T08:18:50;7.93;;;2.40;;
56511;SDS011;42408;53.238;5.686;2023-04-03T08:21:16;7.73;;;2.50;;
56511;SDS011;42408;53.238;5.686;2023-04-03T08:23:42;7.30;;;2.87;;
56511;SDS011;42408;53.238;5.686;2023-04-03T08:26:08;5.50;;;2.37;;
56511;SDS011;42408;53.238;5.686;2023-04-03T08:28:35;10.35;;;2.95;;
56511;SDS011;42408;53.238;5.686;2023-04-03T08:31:04;7.50;;;2.60;;
56511;SDS011;42408;53.238;5.686;2023-04-03T08:33:32;7.30;;;3.28;;
56511;SDS011;42408;53.238;5.686;2023-04-03T08:35:59;6.88;;;2.70;;
56511;SDS011;42408;53.238;5.686;2023-04-03T08:38:25;5.33;;;2.23;;
56511;SDS011;42408;53.238;5.686;2023-04-03T08:46:22;5.13;;;2.22;;
56511;SDS011;42408;53.238;5.686;2023-04-03T08:48:54;8.82;;;2.50;;
56511;SDS011;42408;53.238;5.686;2023-04-03T08:51:21;9.63;;;2.40;;
56511;SDS011;42408;53.238;5.686;2023-04-03T08:54:01;4.57;;;2.00;;
56511;SDS011;42408;53.238;5.686;2023-04-03T08:56:33;5.13;;;2.33;;
56511;SDS011;42408;53.238;5.686;2023-04-03T08:59:00;3.47;;;1.80;;
56511;SDS011;42408;53.238;5.686;2023-04-03T09:01:34;6.32;;;2.00;;
56511;SDS011;42408;53.238;5.686;2023-04-03T09:04:02;5.22;;;2.13;;
56511;SDS011;42408;53.238;5.686;2023-04-03T09:06:34;4.78;;;2.10;;
56511;SDS011;42408;53.238;5.686;2023-04-03T09:12:15;4.53;;;1.88;;
56511;SDS011;42408;53.238;5.686;2023-04-03T09:22:44;3.05;;;1.50;;
56511;SDS011;42408;53.238;5.686;2023-04-03T09:25:15;4.35;;;1.75;;
56511;SDS011;42408;53.238;5.686;2023-04-03T09:27:46;3.22;;;1.80;;
56511;SDS011;42408;53.238;5.686;2023-04-03T09:30:14;3.83;;;1.77;;
56511;SDS011;42408;53.238;5.686;2023-04-03T09:32:41;2.95;;;1.50;;
56511;SDS011;42408;53.238;5.686;2023-04-03T09:37:40;4.80;;;1.77;;
56511;SDS011;42408;53.238;5.686;2023-04-03T09:40:29;4.22;;;1.80;;
56511;SDS011;42408;53.238;5.686;2023-04-03T09:42:59;4.63;;;1.60;;
56511;SDS011;42408;53.238;5.686;2023-04-03T09:45:31;3.10;;;1.20;;
56511;SDS011;42408;53.238;5.686;2023-04-03T09:50:30;4.53;;;1.70;;
56511;SDS011;42408;53.238;5.686;2023-04-03T09:52:56;3.13;;;1.37;;
56511;SDS011;42408;53.238;5.686;2023-04-03T09:55:25;2.13;;;1.20;;
56511;SDS011;42408;53.238;5.686;2023-04-03T09:57:54;3.15;;;1.48;;
56511;SDS011;42408;53.238;5.686;2023-04-03T10:02:51;3.65;;;1.45;;
56511;SDS011;42408;53.238;5.686;2023-04-03T10:05:37;3.92;;;1.50;;
56511;SDS011;42408;53.238;5.686;2023-04-03T10:08:20;3.15;;;1.45;;
56511;SDS011;42408;53.238;5.686;2023-04-03T10:11:06;3.22;;;1.38;;
56511;SDS011;42408;53.238;5.686;2023-04-03T10:13:35;4.55;;;1.30;;
56511;SDS011;42408;53.238;5.686;2023-04-03T10:16:08;2.88;;;1.40;;
56511;SDS011;42408;53.238;5.686;2023-04-03T10:18:58;3.03;;;1.30;;
56511;SDS011;42408;53.238;5.686;2023-04-03T10:21:57;2.65;;;1.25;;
56511;SDS011;42408;53.238;5.686;2023-04-03T10:27:13;3.40;;;1.33;;
56511;SDS011;42408;53.238;5.686;2023-04-03T10:41:04;3.85;;;1.40;;
56511;SDS011;42408;53.238;5.686;2023-04-03T10:43:53;4.07;;;1.60;;
56511;SDS011;42408;53.238;5.686;2023-04-03T10:46:35;3.30;;;1.40;;
56511;SDS011;42408;53.238;5.686;2023-04-03T10:52:00;1.88;;;1.20;;
56511;SDS011;42408;53.238;5.686;2023-04-03T10:54:51;1.65;;;1.10;;
56511;SDS011;42408;53.238;5.686;2023-04-03T10:57:19;3.25;;;1.35;;
56511;SDS011;42408;53.238;5.686;2023-04-03T10:59:53;3.53;;;1.42;;
56511;SDS011;42408;53.238;5.686;2023-04-03T11:02:27;1.63;;;1.00;;
56511;SDS011;42408;53.238;5.686;2023-04-03T11:04:59;2.38;;;1.25;;
56511;SDS011;42408;53.238;5.686;2023-04-03T11:07:47;3.03;;;1.05;;
56511;SDS011;42408;53.238;5.686;2023-04-03T11:10:35;2.90;;;1.23;;
56511;SDS011;42408;53.238;5.686;2023-04-03T11:13:13;4.03;;;1.48;;
56511;SDS011;42408;53.238;5.686;2023-04-03T11:15:45;2.80;;;1.20;;
56511;SDS011;42408;53.238;5.686;2023-04-03T11:18:28;5.38;;;1.73;;
56511;SDS011;42408;53.238;5.686;2023-04-03T11:21:13;2.97;;;1.35;;
56511;SDS011;42408;53.238;5.686;2023-04-03T11:23:46;3.13;;;1.45;;
56511;SDS011;42408;53.238;5.686;2023-04-03T11:26:14;2.88;;;1.20;;
56511;SDS011;42408;53.238;5.686;2023-04-03T11:28:45;3.10;;;1.40;;
56511;SDS011;42408;53.238;5.686;2023-04-03T11:31:25;2.60;;;1.37;;
56511;SDS011;42408;53.238;5.686;2023-04-03T11:36:48;1.95;;;1.27;;
56511;SDS011;42408;53.238;5.686;2023-04-03T11:41:50;3.60;;;1.20;;
56511;SDS011;42408;53.238;5.686;2023-04-03T11:44:29;2.57;;;1.07;;
56511;SDS011;42408;53.238;5.686;2023-04-03T11:47:04;3.70;;;1.30;;
56511;SDS011;42408;53.238;5.686;2023-04-03T11:58:02;3.45;;;1.20;;
56511;SDS011;42408;53.238;5.686;2023-04-03T12:05:53;3.22;;;1.50;;
56511;SDS011;42408;53.238;5.686;2023-04-03T12:13:36;3.83;;;1.50;;
56511;SDS011;42408;53.238;5.686;2023-04-03T12:45:37;4.53;;;1.60;;
56511;SDS011;42408;53.238;5.686;2023-04-03T12:48:22;2.90;;;1.30;;
56511;SDS011;42408;53.238;5.686;2023-04-03T12:50:51;5.28;;;1.90;;
56511;SDS011;42408;53.238;5.686;2023-04-03T12:53:27;2.85;;;1.30;;
56511;SDS011;42408;53.238;5.686;2023-04-03T12:56:17;3.25;;;1.20;;
56511;SDS011;42408;53.238;5.686;2023-04-03T12:59:23;7.43;;;1.65;;
56511;SDS011;42408;53.238;5.686;2023-04-03T13:01:58;3.47;;;1.38;;
56511;SDS011;42408;53.238;5.686;2023-04-03T13:04:26;3.33;;;1.65;;
56511;SDS011;42408;53.238;5.686;2023-04-03T13:06:53;2.60;;;1.40;;
56511;SDS011;42408;53.238;5.686;2023-04-03T13:09:26;3.03;;;1.47;;
56511;SDS011;42408;53.238;5.686;2023-04-03T13:12:14;6.40;;;1.83;;
56511;SDS011;42408;53.238;5.686;2023-04-03T13:14:49;4.53;;;1.55;;
56511;SDS011;42408;53.238;5.686;2023-04-03T13:17:18;3.67;;;1.50;;
56511;SDS011;42408;53.238;5.686;2023-04-03T13:19:44;3.73;;;1.50;;
56511;SDS011;42408;53.238;5.686;2023-04-03T13:25:17;4.97;;;1.58;;
56511;SDS011;42408;53.238;5.686;2023-04-03T13:27:45;3.67;;;1.73;;
56511;SDS011;42408;53.238;5.686;2023-04-03T13:30:19;3.67;;;1.70;;
56511;SDS011;42408;53.238;5.686;2023-04-03T13:32:56;4.25;;;1.45;;
56511;SDS011;42408;53.238;5.686;2023-04-03T13:35:37;2.70;;;1.63;;
56511;SDS011;42408;53.238;5.686;2023-04-03T13:40:47;3.72;;;1.55;;
56511;SDS011;42408;53.238;5.686;2023-04-03T13:43:18;3.08;;;1.65;;
56511;SDS011;42408;53.238;5.686;2023-04-03T13:48:36;3.75;;;2.17;;
56511;SDS011;42408;53.238;5.686;2023-04-03T13:53:46;3.53;;;1.70;;
56511;SDS011;42408;53.238;5.686;2023-04-03T14:04:18;4.28;;;2.13;;
56511;SDS011;42408;53.238;5.686;2023-04-03T14:06:53;3.83;;;1.40;;
56511;SDS011;42408;53.238;5.686;2023-04-03T14:09:20;4.00;;;1.50;;
56511;SDS011;42408;53.238;5.686;2023-04-03T14:11:48;5.13;;;1.50;;
56511;SDS011;42408;53.238;5.686;2023-04-03T14:14:17;2.33;;;1.30;;
56511;SDS011;42408;53.238;5.686;2023-04-03T14:16:50;2.28;;;1.35;;
56511;SDS011;42408;53.238;5.686;2023-04-03T14:19:19;2.30;;;1.50;;
56511;SDS011;42408;53.238;5.686;2023-04-03T14:21:47;3.63;;;1.75;;
56511;SDS011;42408;53.238;5.686;2023-04-03T14:24:14;2.63;;;1.20;;
56511;SDS011;42408;53.238;5.686;2023-04-03T14:26:39;3.10;;;1.70;;
56511;SDS011;42408;53.238;5.686;2023-04-03T14:29:06;2.90;;;1.33;;
56511;SDS011;42408;53.238;5.686;2023-04-03T14:31:31;5.90;;;1.77;;
56511;SDS011;42408;53.238;5.686;2023-04-03T14:33:57;3.43;;;1.50;;
56511;SDS011;42408;53.238;5.686;2023-04-03T14:36:23;3.83;;;1.57;;
56511;SDS011;42408;53.238;5.686;2023-04-03T14:38:51;3.22;;;1.50;;
56511;SDS011;42408;53.238;5.686;2023-04-03T14:43:45;5.43;;;1.90;;
56511;SDS011;42408;53.238;5.686;2023-04-03T14:46:15;3.80;;;1.63;;
56511;SDS011;42408;53.238;5.686;2023-04-03T14:48:47;2.25;;;1.20;;
56511;SDS011;42408;53.238;5.686;2023-04-03T14:51:13;4.95;;;1.90;;
56511;SDS011;42408;53.238;5.686;2023-04-03T14:53:40;3.33;;;1.40;;
56511;SDS011;42408;53.238;5.686;2023-04-03T14:56:10;3.75;;;1.67;;
56511;SDS011;42408;53.238;5.686;2023-04-03T14:58:41;4.30;;;1.58;;
56511;SDS011;42408;53.238;5.686;2023-04-03T15:01:09;3.47;;;1.40;;
56511;SDS011;42408;53.238;5.686;2023-04-03T15:03:36;3.30;;;1.73;;
56511;SDS011;42408;53.238;5.686;2023-04-03T15:06:02;2.67;;;1.40;;
56511;SDS011;42408;53.238;5.686;2023-04-03T15:08:28;3.15;;;1.58;;
56511;SDS011;42408;53.238;5.686;2023-04-03T15:10:54;5.68;;;2.08;;
56511;SDS011;42408;53.238;5.686;2023-04-03T15:13:21;4.35;;;1.90;;
56511;SDS011;42408;53.238;5.686;2023-04-03T15:15:47;4.50;;;1.90;;
56511;SDS011;42408;53.238;5.686;2023-04-03T15:18:18;5.38;;;1.95;;
56511;SDS011;42408;53.238;5.686;2023-04-03T15:20:47;3.13;;;1.80;;
56511;SDS011;42408;53.238;5.686;2023-04-03T15:23:14;5.80;;;1.98;;
56511;SDS011;42408;53.238;5.686;2023-04-03T15:25:42;3.90;;;2.00;;
56511;SDS011;42408;53.238;5.686;2023-04-03T15:28:11;4.25;;;1.80;;
56511;SDS011;42408;53.238;5.686;2023-04-03T15:30:55;5.32;;;2.03;;
56511;SDS011;42408;53.238;5.686;2023-04-03T15:33:21;3.57;;;1.90;;
56511;SDS011;42408;53.238;5.686;2023-04-03T15:35:46;3.73;;;1.73;;
56511;SDS011;42408;53.238;5.686;2023-04-03T15:38:12;5.67;;;2.07;;
56511;SDS011;42408;53.238;5.686;2023-04-03T15:40:38;4.37;;;2.00;;
56511;SDS011;42408;53.238;5.686;2023-04-03T15:43:04;5.50;;;2.23;;
56511;SDS011;42408;53.238;5.686;2023-04-03T15:45:31;4.32;;;1.80;;
56511;SDS011;42408;53.238;5.686;2023-04-03T15:47:59;6.30;;;2.38;;
56511;SDS011;42408;53.238;5.686;2023-04-03T15:50:26;8.80;;;2.53;;
56511;SDS011;42408;53.238;5.686;2023-04-03T15:52:52;6.10;;;1.90;;
56511;SDS011;42408;53.238;5.686;2023-04-03T15:55:22;4.70;;;2.00;;
56511;SDS011;42408;53.238;5.686;2023-04-03T15:57:49;5.15;;;1.88;;
56511;SDS011;42408;53.238;5.686;2023-04-03T16:00:15;4.33;;;1.83;;
56511;SDS011;42408;53.238;5.686;2023-04-03T16:02:42;4.40;;;1.70;;
56511;SDS011;42408;53.238;5.686;2023-04-03T16:05:10;3.20;;;1.48;;
56511;SDS011;42408;53.238;5.686;2023-04-03T16:10:04;3.58;;;1.40;;
56511;SDS011;42408;53.238;5.686;2023-04-03T16:14:56;3.17;;;1.30;;
56511;SDS011;42408;53.238;5.686;2023-04-03T16:17:21;3.87;;;1.40;;
56511;SDS011;42408;53.238;5.686;2023-04-03T16:19:47;3.40;;;1.50;;
56511;SDS011;42408;53.238;5.686;2023-04-03T16:22:13;3.07;;;1.30;;
56511;SDS011;42408;53.238;5.686;2023-04-03T16:24:38;3.93;;;1.20;;
56511;SDS011;42408;53.238;5.686;2023-04-03T16:27:04;3.17;;;1.20;;
56511;SDS011;42408;53.238;5.686;2023-04-03T16:29:30;2.57;;;1.20;;
56511;SDS011;42408;53.238;5.686;2023-04-03T16:31:56;3.57;;;1.30;;
56511;SDS011;42408;53.238;5.686;2023-04-03T16:36:50;3.22;;;1.48;;
56511;SDS011;42408;53.238;5.686;2023-04-03T16:39:17;2.67;;;1.50;;
56511;SDS011;42408;53.238;5.686;2023-04-03T16:41:43;3.08;;;1.30;;
56511;SDS011;42408;53.238;5.686;2023-04-03T16:46:36;3.30;;;1.25;;
56511;SDS011;42408;53.238;5.686;2023-04-03T16:49:02;3.27;;;1.30;;
56511;SDS011;42408;53.238;5.686;2023-04-03T16:51:28;3.55;;;1.50;;
56511;SDS011;42408;53.238;5.686;2023-04-03T16:53:55;3.05;;;1.77;;
56511;SDS011;42408;53.238;5.686;2023-04-03T16:56:21;4.28;;;1.63;;
56511;SDS011;42408;53.238;5.686;2023-04-03T16:58:47;3.70;;;1.48;;
56511;SDS011;42408;53.238;5.686;2023-04-03T17:01:14;3.87;;;1.53;;
56511;SDS011;42408;53.238;5.686;2023-04-03T17:03:41;2.30;;;1.17;;
56511;SDS011;42408;53.238;5.686;2023-04-03T17:06:06;6.43;;;2.10;;
56511;SDS011;42408;53.238;5.686;2023-04-03T17:08:33;4.13;;;1.60;;
56511;SDS011;42408;53.238;5.686;2023-04-03T17:10:59;5.13;;;1.85;;